Capitol Logistics 401


KSEA
Seattle-Tacoma International Airport
Seattle, Washington, US
KMIA
Miami International Airport
Miami, Florida, US

Route Details

Aircraft Information
Primary: Boeing 757-200SF
Backup: Not Available
Route Data
Distance: 2411nm
Sched. Duration: 5h 40m
Avg. Duration: 5h 24m (-16m)
Times Flown: 6
Recm'd Route: SEA NORMY J90 MWH DLN DDY BFF SGF MEM MGM SZW PLYER JUULI SSCOT5
Planned Altitude: 35,000ft
Origin Wx: KSEA 311353Z 20008KT 10SM OVC011 04/03 A2995 RMK AO2 SLP152 T00390028
Dest. Wx: KMIA 311353Z 19009KT 10SM SCT023 BKN250 27/21 A2995 RMK AO2 SLP143 T02720206
Notes:

Financial History
Total Freight: 565,171lbs
Average Load: 94,195lbs/flt
Fuel Used: 349,356lbs
Avg. Fuel Used: 58,226lbs/flt
Fuel Expense: $391,279
Avg. Fuel Expense: $65,213
Avg. Fuel Cost: $1.12/lbs
Total Gross Income: $956,139
Pilot Pay: $1,184
Total Expenses: $103,575
Total Revenue: $453,137
Average Revenue: $159,356.48